sensor_id;sensor_type;location;lat;lon;timestamp;P1;durP1;ratioP1;P2;durP2;ratioP2
10882;SDS011;5494;51.796;10.952;2023-09-12T00:00:54;13.83;;;6.43;;
10882;SDS011;5494;51.796;10.952;2023-09-12T00:03:22;11.83;;;6.70;;
10882;SDS011;5494;51.796;10.952;2023-09-12T00:05:51;12.77;;;7.00;;
10882;SDS011;5494;51.796;10.952;2023-09-12T00:08:20;15.33;;;6.80;;
10882;SDS011;5494;51.796;10.952;2023-09-12T00:10:59;13.80;;;6.50;;
10882;SDS011;5494;51.796;10.952;2023-09-12T00:13:29;14.03;;;6.33;;
10882;SDS011;5494;51.796;10.952;2023-09-12T00:15:58;12.07;;;6.17;;
10882;SDS011;5494;51.796;10.952;2023-09-12T00:18:26;8.50;;;6.63;;
10882;SDS011;5494;51.796;10.952;2023-09-12T00:20:55;9.73;;;6.20;;
10882;SDS011;5494;51.796;10.952;2023-09-12T00:23:26;9.17;;;6.40;;
10882;SDS011;5494;51.796;10.952;2023-09-12T00:25:54;11.00;;;6.87;;
10882;SDS011;5494;51.796;10.952;2023-09-12T00:28:25;8.93;;;6.33;;
10882;SDS011;5494;51.796;10.952;2023-09-12T00:30:54;9.27;;;6.20;;
10882;SDS011;5494;51.796;10.952;2023-09-12T00:33:22;7.77;;;6.03;;
10882;SDS011;5494;51.796;10.952;2023-09-12T00:35:51;11.63;;;6.43;;
10882;SDS011;5494;51.796;10.952;2023-09-12T00:38:19;11.47;;;6.50;;
10882;SDS011;5494;51.796;10.952;2023-09-12T00:40:47;9.47;;;5.97;;
10882;SDS011;5494;51.796;10.952;2023-09-12T00:43:18;13.37;;;6.87;;
10882;SDS011;5494;51.796;10.952;2023-09-12T00:45:48;10.27;;;6.23;;
10882;SDS011;5494;51.796;10.952;2023-09-12T00:48:16;11.83;;;6.67;;
10882;SDS011;5494;51.796;10.952;2023-09-12T00:50:48;12.70;;;6.03;;
10882;SDS011;5494;51.796;10.952;2023-09-12T00:53:18;11.10;;;6.30;;
10882;SDS011;5494;51.796;10.952;2023-09-12T00:55:48;12.57;;;6.30;;
10882;SDS011;5494;51.796;10.952;2023-09-12T00:58:23;9.53;;;6.30;;
10882;SDS011;5494;51.796;10.952;2023-09-12T01:00:55;9.60;;;6.07;;
10882;SDS011;5494;51.796;10.952;2023-09-12T01:03:24;9.97;;;6.17;;
10882;SDS011;5494;51.796;10.952;2023-09-12T01:05:54;9.50;;;6.03;;
10882;SDS011;5494;51.796;10.952;2023-09-12T01:08:24;8.53;;;6.40;;
10882;SDS011;5494;51.796;10.952;2023-09-12T01:10:52;10.13;;;6.40;;
10882;SDS011;5494;51.796;10.952;2023-09-12T01:13:24;11.80;;;5.73;;
10882;SDS011;5494;51.796;10.952;2023-09-12T01:15:52;10.13;;;6.10;;
10882;SDS011;5494;51.796;10.952;2023-09-12T01:18:21;11.37;;;5.90;;
10882;SDS011;5494;51.796;10.952;2023-09-12T01:20:59;10.37;;;6.00;;
10882;SDS011;5494;51.796;10.952;2023-09-12T01:23:52;10.33;;;6.40;;
10882;SDS011;5494;51.796;10.952;2023-09-12T01:26:49;13.80;;;6.87;;
10882;SDS011;5494;51.796;10.952;2023-09-12T01:29:39;14.43;;;7.13;;
10882;SDS011;5494;51.796;10.952;2023-09-12T01:32:11;14.07;;;6.77;;
10882;SDS011;5494;51.796;10.952;2023-09-12T01:34:41;12.43;;;7.10;;
10882;SDS011;5494;51.796;10.952;2023-09-12T01:37:09;11.40;;;6.90;;
10882;SDS011;5494;51.796;10.952;2023-09-12T01:39:38;15.17;;;6.97;;
10882;SDS011;5494;51.796;10.952;2023-09-12T01:42:07;15.47;;;7.43;;
10882;SDS011;5494;51.796;10.952;2023-09-12T01:44:40;15.07;;;6.93;;
10882;SDS011;5494;51.796;10.952;2023-09-12T01:47:11;16.00;;;7.67;;
10882;SDS011;5494;51.796;10.952;2023-09-12T01:49:42;12.80;;;7.37;;
10882;SDS011;5494;51.796;10.952;2023-09-12T01:52:14;13.73;;;6.67;;
10882;SDS011;5494;51.796;10.952;2023-09-12T01:54:43;9.40;;;6.50;;
10882;SDS011;5494;51.796;10.952;2023-09-12T01:57:13;11.70;;;7.17;;
10882;SDS011;5494;51.796;10.952;2023-09-12T01:59:44;13.77;;;7.13;;
10882;SDS011;5494;51.796;10.952;2023-09-12T02:02:12;13.60;;;7.13;;
10882;SDS011;5494;51.796;10.952;2023-09-12T02:04:40;8.73;;;7.20;;
10882;SDS011;5494;51.796;10.952;2023-09-12T02:07:08;11.50;;;7.23;;
10882;SDS011;5494;51.796;10.952;2023-09-12T02:09:36;15.97;;;7.77;;
10882;SDS011;5494;51.796;10.952;2023-09-12T02:12:04;15.20;;;7.37;;
10882;SDS011;5494;51.796;10.952;2023-09-12T02:14:33;12.00;;;7.23;;
10882;SDS011;5494;51.796;10.952;2023-09-12T02:17:03;10.17;;;7.03;;
10882;SDS011;5494;51.796;10.952;2023-09-12T02:19:31;11.77;;;7.77;;
10882;SDS011;5494;51.796;10.952;2023-09-12T02:21:59;12.00;;;7.80;;
10882;SDS011;5494;51.796;10.952;2023-09-12T02:24:27;16.53;;;8.23;;
10882;SDS011;5494;51.796;10.952;2023-09-12T02:26:55;13.20;;;7.80;;
10882;SDS011;5494;51.796;10.952;2023-09-12T02:29:23;10.17;;;8.00;;
10882;SDS011;5494;51.796;10.952;2023-09-12T02:31:51;13.80;;;7.50;;
10882;SDS011;5494;51.796;10.952;2023-09-12T02:34:21;11.87;;;8.47;;
10882;SDS011;5494;51.796;10.952;2023-09-12T02:36:49;18.80;;;8.10;;
10882;SDS011;5494;51.796;10.952;2023-09-12T02:39:17;15.63;;;8.00;;
10882;SDS011;5494;51.796;10.952;2023-09-12T02:41:45;14.70;;;7.60;;
10882;SDS011;5494;51.796;10.952;2023-09-12T02:44:13;17.30;;;7.57;;
10882;SDS011;5494;51.796;10.952;2023-09-12T02:46:42;15.53;;;7.63;;
10882;SDS011;5494;51.796;10.952;2023-09-12T02:49:11;14.80;;;8.43;;
10882;SDS011;5494;51.796;10.952;2023-09-12T02:51:40;9.87;;;7.30;;
10882;SDS011;5494;51.796;10.952;2023-09-12T02:54:09;14.93;;;7.23;;
10882;SDS011;5494;51.796;10.952;2023-09-12T02:56:37;15.70;;;7.90;;
10882;SDS011;5494;51.796;10.952;2023-09-12T02:59:05;13.20;;;7.57;;
10882;SDS011;5494;51.796;10.952;2023-09-12T03:01:33;12.13;;;7.20;;
10882;SDS011;5494;51.796;10.952;2023-09-12T03:04:01;14.77;;;7.97;;
10882;SDS011;5494;51.796;10.952;2023-09-12T03:06:30;13.83;;;7.50;;
10882;SDS011;5494;51.796;10.952;2023-09-12T03:09:00;13.83;;;8.37;;
10882;SDS011;5494;51.796;10.952;2023-09-12T03:11:28;17.80;;;8.43;;
10882;SDS011;5494;51.796;10.952;2023-09-12T03:13:57;12.67;;;8.37;;
10882;SDS011;5494;51.796;10.952;2023-09-12T03:16:25;14.17;;;7.77;;
10882;SDS011;5494;51.796;10.952;2023-09-12T03:18:53;12.90;;;7.60;;
10882;SDS011;5494;51.796;10.952;2023-09-12T03:21:21;13.03;;;7.67;;
10882;SDS011;5494;51.796;10.952;2023-09-12T03:23:49;15.23;;;8.30;;
10882;SDS011;5494;51.796;10.952;2023-09-12T03:26:19;11.50;;;7.53;;
10882;SDS011;5494;51.796;10.952;2023-09-12T03:28:48;14.70;;;7.57;;
10882;SDS011;5494;51.796;10.952;2023-09-12T03:31:17;14.10;;;8.07;;
10882;SDS011;5494;51.796;10.952;2023-09-12T03:33:46;15.23;;;9.40;;
10882;SDS011;5494;51.796;10.952;2023-09-12T03:36:17;11.90;;;8.17;;
10882;SDS011;5494;51.796;10.952;2023-09-12T03:38:46;18.00;;;8.80;;
10882;SDS011;5494;51.796;10.952;2023-09-12T03:41:14;13.97;;;8.43;;
10882;SDS011;5494;51.796;10.952;2023-09-12T03:43:45;15.97;;;8.50;;
10882;SDS011;5494;51.796;10.952;2023-09-12T03:46:14;15.03;;;8.43;;
10882;SDS011;5494;51.796;10.952;2023-09-12T03:48:42;13.43;;;9.17;;
10882;SDS011;5494;51.796;10.952;2023-09-12T03:51:11;13.03;;;8.33;;
10882;SDS011;5494;51.796;10.952;2023-09-12T03:53:40;15.87;;;9.13;;
10882;SDS011;5494;51.796;10.952;2023-09-12T03:56:08;18.10;;;8.90;;
10882;SDS011;5494;51.796;10.952;2023-09-12T03:58:38;15.53;;;9.20;;
10882;SDS011;5494;51.796;10.952;2023-09-12T04:01:09;13.43;;;9.10;;
10882;SDS011;5494;51.796;10.952;2023-09-12T04:03:37;19.47;;;9.43;;
10882;SDS011;5494;51.796;10.952;2023-09-12T04:06:05;13.33;;;9.53;;
10882;SDS011;5494;51.796;10.952;2023-09-12T04:08:33;17.40;;;10.00;;
10882;SDS011;5494;51.796;10.952;2023-09-12T04:11:01;15.17;;;9.67;;
10882;SDS011;5494;51.796;10.952;2023-09-12T04:13:30;17.50;;;10.47;;
10882;SDS011;5494;51.796;10.952;2023-09-12T04:15:58;17.50;;;9.97;;
10882;SDS011;5494;51.796;10.952;2023-09-12T04:18:28;15.43;;;9.67;;
10882;SDS011;5494;51.796;10.952;2023-09-12T04:20:56;14.27;;;9.13;;
10882;SDS011;5494;51.796;10.952;2023-09-12T04:23:24;12.67;;;9.80;;
10882;SDS011;5494;51.796;10.952;2023-09-12T04:25:53;15.93;;;9.83;;
10882;SDS011;5494;51.796;10.952;2023-09-12T04:28:21;11.40;;;10.10;;
10882;SDS011;5494;51.796;10.952;2023-09-12T04:31:00;17.90;;;9.90;;
10882;SDS011;5494;51.796;10.952;2023-09-12T04:33:31;17.90;;;10.43;;
10882;SDS011;5494;51.796;10.952;2023-09-12T04:36:00;15.00;;;10.57;;
10882;SDS011;5494;51.796;10.952;2023-09-12T04:38:28;16.07;;;10.33;;
10882;SDS011;5494;51.796;10.952;2023-09-12T04:40:59;15.23;;;10.23;;
10882;SDS011;5494;51.796;10.952;2023-09-12T04:43:31;12.87;;;9.43;;
10882;SDS011;5494;51.796;10.952;2023-09-12T04:46:00;12.03;;;9.07;;
10882;SDS011;5494;51.796;10.952;2023-09-12T04:48:29;14.43;;;9.77;;
10882;SDS011;5494;51.796;10.952;2023-09-12T04:50:59;12.63;;;9.13;;
10882;SDS011;5494;51.796;10.952;2023-09-12T04:53:27;15.67;;;9.67;;
10882;SDS011;5494;51.796;10.952;2023-09-12T04:56:01;15.10;;;9.70;;
10882;SDS011;5494;51.796;10.952;2023-09-12T04:58:30;16.63;;;9.60;;
10882;SDS011;5494;51.796;10.952;2023-09-12T05:00:58;14.27;;;10.20;;
10882;SDS011;5494;51.796;10.952;2023-09-12T05:03:26;15.27;;;10.40;;
10882;SDS011;5494;51.796;10.952;2023-09-12T05:05:54;15.20;;;9.53;;
10882;SDS011;5494;51.796;10.952;2023-09-12T05:08:24;16.03;;;9.43;;
10882;SDS011;5494;51.796;10.952;2023-09-12T05:10:52;16.63;;;9.83;;
10882;SDS011;5494;51.796;10.952;2023-09-12T05:13:20;14.37;;;9.33;;
10882;SDS011;5494;51.796;10.952;2023-09-12T05:15:48;14.20;;;9.00;;
10882;SDS011;5494;51.796;10.952;2023-09-12T05:18:17;13.77;;;9.70;;
10882;SDS011;5494;51.796;10.952;2023-09-12T05:20:45;16.97;;;10.93;;
10882;SDS011;5494;51.796;10.952;2023-09-12T05:23:13;18.70;;;10.47;;
10882;SDS011;5494;51.796;10.952;2023-09-12T05:25:43;17.03;;;9.93;;
10882;SDS011;5494;51.796;10.952;2023-09-12T05:28:11;17.40;;;10.10;;
10882;SDS011;5494;51.796;10.952;2023-09-12T05:30:44;13.97;;;10.17;;
10882;SDS011;5494;51.796;10.952;2023-09-12T05:33:12;15.90;;;11.07;;
10882;SDS011;5494;51.796;10.952;2023-09-12T05:35:44;17.23;;;12.53;;
10882;SDS011;5494;51.796;10.952;2023-09-12T05:38:12;16.87;;;12.40;;
10882;SDS011;5494;51.796;10.952;2023-09-12T05:40:40;14.60;;;11.83;;
10882;SDS011;5494;51.796;10.952;2023-09-12T05:43:10;14.43;;;12.03;;
10882;SDS011;5494;51.796;10.952;2023-09-12T05:45:38;15.03;;;11.47;;
10882;SDS011;5494;51.796;10.952;2023-09-12T05:48:06;12.97;;;11.23;;
10882;SDS011;5494;51.796;10.952;2023-09-12T05:50:36;14.03;;;11.17;;
10882;SDS011;5494;51.796;10.952;2023-09-12T05:53:04;16.13;;;11.60;;
10882;SDS011;5494;51.796;10.952;2023-09-12T05:55:34;16.90;;;11.03;;
10882;SDS011;5494;51.796;10.952;2023-09-12T05:58:03;14.60;;;10.30;;
10882;SDS011;5494;51.796;10.952;2023-09-12T06:00:33;13.30;;;9.33;;
10882;SDS011;5494;51.796;10.952;2023-09-12T06:03:01;14.17;;;8.87;;
10882;SDS011;5494;51.796;10.952;2023-09-12T06:05:30;12.23;;;8.93;;
10882;SDS011;5494;51.796;10.952;2023-09-12T06:07:58;9.37;;;8.37;;
10882;SDS011;5494;51.796;10.952;2023-09-12T06:10:27;10.67;;;8.47;;
10882;SDS011;5494;51.796;10.952;2023-09-12T06:12:55;20.23;;;10.77;;
10882;SDS011;5494;51.796;10.952;2023-09-12T06:15:25;11.77;;;8.47;;
10882;SDS011;5494;51.796;10.952;2023-09-12T06:17:53;11.27;;;8.30;;
10882;SDS011;5494;51.796;10.952;2023-09-12T06:20:21;9.13;;;7.53;;
10882;SDS011;5494;51.796;10.952;2023-09-12T06:22:50;10.70;;;7.90;;
10882;SDS011;5494;51.796;10.952;2023-09-12T06:25:18;11.90;;;7.63;;
10882;SDS011;5494;51.796;10.952;2023-09-12T06:27:46;11.83;;;7.60;;
10882;SDS011;5494;51.796;10.952;2023-09-12T06:30:16;8.90;;;8.00;;
10882;SDS011;5494;51.796;10.952;2023-09-12T06:32:46;9.67;;;7.13;;
10882;SDS011;5494;51.796;10.952;2023-09-12T06:35:14;8.47;;;6.73;;
10882;SDS011;5494;51.796;10.952;2023-09-12T06:37:43;9.40;;;6.97;;
10882;SDS011;5494;51.796;10.952;2023-09-12T06:40:13;10.73;;;7.13;;
10882;SDS011;5494;51.796;10.952;2023-09-12T06:42:41;9.07;;;6.83;;
10882;SDS011;5494;51.796;10.952;2023-09-12T06:45:10;7.77;;;6.27;;
10882;SDS011;5494;51.796;10.952;2023-09-12T06:47:39;10.67;;;6.27;;
10882;SDS011;5494;51.796;10.952;2023-09-12T06:50:09;9.63;;;6.30;;
10882;SDS011;5494;51.796;10.952;2023-09-12T06:52:41;7.43;;;5.93;;
10882;SDS011;5494;51.796;10.952;2023-09-12T06:55:09;6.80;;;5.77;;
10882;SDS011;5494;51.796;10.952;2023-09-12T06:57:38;6.60;;;6.00;;
10882;SDS011;5494;51.796;10.952;2023-09-12T07:00:07;7.10;;;5.93;;
10882;SDS011;5494;51.796;10.952;2023-09-12T07:02:37;11.00;;;6.00;;
10882;SDS011;5494;51.796;10.952;2023-09-12T07:05:06;6.67;;;5.37;;
10882;SDS011;5494;51.796;10.952;2023-09-12T07:07:35;6.10;;;5.50;;
10882;SDS011;5494;51.796;10.952;2023-09-12T07:10:04;7.73;;;5.43;;
10882;SDS011;5494;51.796;10.952;2023-09-12T07:12:49;6.63;;;5.20;;
10882;SDS011;5494;51.796;10.952;2023-09-12T07:15:17;9.30;;;5.30;;
10882;SDS011;5494;51.796;10.952;2023-09-12T07:17:46;6.53;;;5.17;;
10882;SDS011;5494;51.796;10.952;2023-09-12T07:20:15;6.10;;;5.50;;
10882;SDS011;5494;51.796;10.952;2023-09-12T07:22:45;5.93;;;5.33;;
10882;SDS011;5494;51.796;10.952;2023-09-12T07:25:14;6.23;;;5.33;;
10882;SDS011;5494;51.796;10.952;2023-09-12T07:27:42;7.77;;;5.83;;
10882;SDS011;5494;51.796;10.952;2023-09-12T07:30:11;6.53;;;5.50;;
10882;SDS011;5494;51.796;10.952;2023-09-12T07:32:39;7.37;;;5.30;;
10882;SDS011;5494;51.796;10.952;2023-09-12T07:35:08;6.20;;;5.60;;
10882;SDS011;5494;51.796;10.952;2023-09-12T07:37:36;8.00;;;5.37;;
10882;SDS011;5494;51.796;10.952;2023-09-12T07:40:06;6.07;;;5.27;;
10882;SDS011;5494;51.796;10.952;2023-09-12T07:42:38;6.20;;;5.60;;
10882;SDS011;5494;51.796;10.952;2023-09-12T07:45:07;8.30;;;6.17;;
10882;SDS011;5494;51.796;10.952;2023-09-12T07:47:36;5.60;;;5.10;;
10882;SDS011;5494;51.796;10.952;2023-09-12T07:50:04;8.43;;;5.67;;
10882;SDS011;5494;51.796;10.952;2023-09-12T07:52:33;6.83;;;5.40;;
10882;SDS011;5494;51.796;10.952;2023-09-12T07:55:02;5.87;;;5.27;;
10882;SDS011;5494;51.796;10.952;2023-09-12T07:57:33;7.67;;;5.47;;
10882;SDS011;5494;51.796;10.952;2023-09-12T08:00:04;6.87;;;5.47;;
10882;SDS011;5494;51.796;10.952;2023-09-12T08:02:37;6.70;;;5.60;;
10882;SDS011;5494;51.796;10.952;2023-09-12T08:05:06;6.67;;;5.97;;
10882;SDS011;5494;51.796;10.952;2023-09-12T08:07:35;9.20;;;6.70;;
10882;SDS011;5494;51.796;10.952;2023-09-12T08:10:04;9.07;;;6.53;;
10882;SDS011;5494;51.796;10.952;2023-09-12T08:12:35;6.17;;;5.67;;
10882;SDS011;5494;51.796;10.952;2023-09-12T08:15:06;6.73;;;5.73;;
10882;SDS011;5494;51.796;10.952;2023-09-12T08:17:35;6.87;;;5.60;;
10882;SDS011;5494;51.796;10.952;2023-09-12T08:20:04;5.80;;;5.20;;
10882;SDS011;5494;51.796;10.952;2023-09-12T08:22:36;6.47;;;5.60;;
10882;SDS011;5494;51.796;10.952;2023-09-12T08:25:04;7.03;;;5.57;;
10882;SDS011;5494;51.796;10.952;2023-09-12T08:27:35;7.77;;;5.33;;
10882;SDS011;5494;51.796;10.952;2023-09-12T08:30:03;5.20;;;4.70;;
10882;SDS011;5494;51.796;10.952;2023-09-12T08:32:32;4.77;;;4.37;;
10882;SDS011;5494;51.796;10.952;2023-09-12T08:35:00;6.00;;;4.40;;
10882;SDS011;5494;51.796;10.952;2023-09-12T08:37:29;8.37;;;5.23;;
10882;SDS011;5494;51.796;10.952;2023-09-12T08:39:57;5.40;;;4.30;;
10882;SDS011;5494;51.796;10.952;2023-09-12T08:42:26;4.33;;;3.93;;
10882;SDS011;5494;51.796;10.952;2023-09-12T08:44:56;5.03;;;4.50;;
10882;SDS011;5494;51.796;10.952;2023-09-12T08:47:24;5.60;;;4.50;;
10882;SDS011;5494;51.796;10.952;2023-09-12T08:49:54;4.80;;;4.30;;
10882;SDS011;5494;51.796;10.952;2023-09-12T08:52:23;11.90;;;5.03;;
10882;SDS011;5494;51.796;10.952;2023-09-12T08:54:51;5.60;;;4.45;;
10882;SDS011;5494;51.796;10.952;2023-09-12T08:57:19;5.45;;;4.60;;
10882;SDS011;5494;51.796;10.952;2023-09-12T08:59:49;4.90;;;4.40;;
10882;SDS011;5494;51.796;10.952;2023-09-12T09:02:20;4.23;;;3.90;;
10882;SDS011;5494;51.796;10.952;2023-09-12T09:04:49;5.43;;;4.07;;
10882;SDS011;5494;51.796;10.952;2023-09-12T09:07:18;6.50;;;4.70;;
10882;SDS011;5494;51.796;10.952;2023-09-12T09:09:49;4.33;;;3.93;;
10882;SDS011;5494;51.796;10.952;2023-09-12T09:12:20;3.40;;;3.10;;
10882;SDS011;5494;51.796;10.952;2023-09-12T09:14:48;3.70;;;3.17;;
10882;SDS011;5494;51.796;10.952;2023-09-12T09:17:16;3.90;;;3.50;;
10882;SDS011;5494;51.796;10.952;2023-09-12T09:20:02;3.43;;;3.10;;
10882;SDS011;5494;51.796;10.952;2023-09-12T09:22:35;4.87;;;3.33;;
10882;SDS011;5494;51.796;10.952;2023-09-12T09:25:10;4.03;;;3.60;;
10882;SDS011;5494;51.796;10.952;2023-09-12T09:27:40;4.80;;;3.03;;
10882;SDS011;5494;51.796;10.952;2023-09-12T09:30:08;6.27;;;3.60;;
10882;SDS011;5494;51.796;10.952;2023-09-12T09:32:38;3.93;;;3.30;;
10882;SDS011;5494;51.796;10.952;2023-09-12T09:35:08;6.17;;;3.30;;
10882;SDS011;5494;51.796;10.952;2023-09-12T09:37:37;4.60;;;3.10;;
10882;SDS011;5494;51.796;10.952;2023-09-12T09:40:06;3.97;;;3.37;;
10882;SDS011;5494;51.796;10.952;2023-09-12T09:42:37;5.97;;;5.00;;
10882;SDS011;5494;51.796;10.952;2023-09-12T09:45:06;3.50;;;3.20;;
10882;SDS011;5494;51.796;10.952;2023-09-12T09:47:35;3.97;;;3.67;;
10882;SDS011;5494;51.796;10.952;2023-09-12T09:50:03;3.30;;;3.00;;
10882;SDS011;5494;51.796;10.952;2023-09-12T09:52:33;4.43;;;2.97;;
10882;SDS011;5494;51.796;10.952;2023-09-12T09:55:02;5.00;;;3.20;;
10882;SDS011;5494;51.796;10.952;2023-09-12T09:57:36;4.23;;;3.40;;
10882;SDS011;5494;51.796;10.952;2023-09-12T10:00:06;3.73;;;3.17;;
10882;SDS011;5494;51.796;10.952;2023-09-12T10:02:41;5.00;;;3.50;;
10882;SDS011;5494;51.796;10.952;2023-09-12T10:05:12;5.53;;;3.40;;
10882;SDS011;5494;51.796;10.952;2023-09-12T10:07:47;5.53;;;4.37;;
10882;SDS011;5494;51.796;10.952;2023-09-12T10:10:18;3.83;;;3.40;;
10882;SDS011;5494;51.796;10.952;2023-09-12T10:12:49;6.20;;;3.70;;
10882;SDS011;5494;51.796;10.952;2023-09-12T10:15:21;6.87;;;3.87;;
10882;SDS011;5494;51.796;10.952;2023-09-12T10:17:55;5.13;;;3.67;;
10882;SDS011;5494;51.796;10.952;2023-09-12T10:20:27;3.10;;;2.87;;
10882;SDS011;5494;51.796;10.952;2023-09-12T10:23:07;4.80;;;3.67;;
10882;SDS011;5494;51.796;10.952;2023-09-12T10:25:43;5.13;;;3.00;;
10882;SDS011;5494;51.796;10.952;2023-09-12T10:28:15;5.13;;;3.20;;
10882;SDS011;5494;51.796;10.952;2023-09-12T10:30:45;4.37;;;3.30;;
10882;SDS011;5494;51.796;10.952;2023-09-12T10:33:14;3.60;;;3.30;;
10882;SDS011;5494;51.796;10.952;2023-09-12T10:35:44;3.63;;;3.33;;
10882;SDS011;5494;51.796;10.952;2023-09-12T10:38:16;4.60;;;3.30;;
10882;SDS011;5494;51.796;10.952;2023-09-12T10:40:49;4.47;;;3.23;;
10882;SDS011;5494;51.796;10.952;2023-09-12T10:43:20;4.43;;;3.87;;
10882;SDS011;5494;51.796;10.952;2023-09-12T10:45:50;3.67;;;3.37;;
10882;SDS011;5494;51.796;10.952;2023-09-12T10:48:19;3.93;;;3.53;;
10882;SDS011;5494;51.796;10.952;2023-09-12T10:50:48;4.80;;;3.10;;
10882;SDS011;5494;51.796;10.952;2023-09-12T10:53:18;4.03;;;3.27;;
10882;SDS011;5494;51.796;10.952;2023-09-12T10:56:00;3.70;;;3.27;;
10882;SDS011;5494;51.796;10.952;2023-09-12T11:01:42;8.67;;;3.67;;
10882;SDS011;5494;51.796;10.952;2023-09-12T11:04:29;5.73;;;3.00;;
10882;SDS011;5494;51.796;10.952;2023-09-12T11:10:17;5.63;;;3.50;;
10882;SDS011;5494;51.796;10.952;2023-09-12T11:12:48;5.20;;;3.20;;
10882;SDS011;5494;51.796;10.952;2023-09-12T11:15:19;3.73;;;2.70;;
10882;SDS011;5494;51.796;10.952;2023-09-12T11:17:49;6.20;;;3.10;;
10882;SDS011;5494;51.796;10.952;2023-09-12T11:23:20;4.93;;;3.30;;
10882;SDS011;5494;51.796;10.952;2023-09-12T11:25:50;3.73;;;2.90;;
10882;SDS011;5494;51.796;10.952;2023-09-12T11:28:32;3.03;;;2.73;;
10882;SDS011;5494;51.796;10.952;2023-09-12T11:31:01;3.97;;;2.90;;
10882;SDS011;5494;51.796;10.952;2023-09-12T11:33:29;4.10;;;2.70;;
10882;SDS011;5494;51.796;10.952;2023-09-12T11:36:00;4.67;;;2.57;;
10882;SDS011;5494;51.796;10.952;2023-09-12T11:38:37;4.37;;;2.70;;
10882;SDS011;5494;51.796;10.952;2023-09-12T11:41:06;2.63;;;2.43;;
10882;SDS011;5494;51.796;10.952;2023-09-12T11:43:34;2.27;;;2.07;;
10882;SDS011;5494;51.796;10.952;2023-09-12T11:46:06;2.10;;;1.90;;
10882;SDS011;5494;51.796;10.952;2023-09-12T11:48:36;2.57;;;2.10;;
10882;SDS011;5494;51.796;10.952;2023-09-12T11:51:06;2.73;;;1.80;;
10882;SDS011;5494;51.796;10.952;2023-09-12T11:53:35;2.80;;;2.00;;
10882;SDS011;5494;51.796;10.952;2023-09-12T11:56:03;2.63;;;2.00;;
10882;SDS011;5494;51.796;10.952;2023-09-12T11:58:34;3.33;;;2.13;;
10882;SDS011;5494;51.796;10.952;2023-09-12T12:01:02;2.40;;;2.20;;
10882;SDS011;5494;51.796;10.952;2023-09-12T12:03:31;2.40;;;2.20;;
10882;SDS011;5494;51.796;10.952;2023-09-12T12:05:59;3.03;;;2.60;;
10882;SDS011;5494;51.796;10.952;2023-09-12T12:08:27;4.93;;;2.80;;
10882;SDS011;5494;51.796;10.952;2023-09-12T12:10:58;2.53;;;2.33;;
10882;SDS011;5494;51.796;10.952;2023-09-12T12:13:27;4.67;;;2.23;;
10882;SDS011;5494;51.796;10.952;2023-09-12T12:15:57;3.13;;;2.33;;
10882;SDS011;5494;51.796;10.952;2023-09-12T12:18:25;2.87;;;2.60;;
10882;SDS011;5494;51.796;10.952;2023-09-12T12:20:54;4.27;;;2.90;;
10882;SDS011;5494;51.796;10.952;2023-09-12T12:23:22;3.20;;;2.90;;
10882;SDS011;5494;51.796;10.952;2023-09-12T12:25:51;9.30;;;7.23;;
10882;SDS011;5494;51.796;10.952;2023-09-12T12:28:19;9.17;;;7.17;;
10882;SDS011;5494;51.796;10.952;2023-09-12T12:30:49;8.47;;;7.53;;
10882;SDS011;5494;51.796;10.952;2023-09-12T12:33:22;10.17;;;7.57;;
10882;SDS011;5494;51.796;10.952;2023-09-12T12:36:11;9.67;;;8.20;;
10882;SDS011;5494;51.796;10.952;2023-09-12T12:38:39;8.93;;;7.40;;
10882;SDS011;5494;51.796;10.952;2023-09-12T12:41:23;9.10;;;7.03;;
10882;SDS011;5494;51.796;10.952;2023-09-12T12:44:01;8.23;;;7.43;;
10882;SDS011;5494;51.796;10.952;2023-09-12T12:46:31;7.70;;;6.90;;
10882;SDS011;5494;51.796;10.952;2023-09-12T12:49:00;8.20;;;6.47;;
10882;SDS011;5494;51.796;10.952;2023-09-12T12:51:29;6.83;;;6.10;;
10882;SDS011;5494;51.796;10.952;2023-09-12T12:54:03;7.23;;;6.53;;
10882;SDS011;5494;51.796;10.952;2023-09-12T12:56:33;6.70;;;5.93;;
10882;SDS011;5494;51.796;10.952;2023-09-12T12:59:03;5.30;;;4.63;;
10882;SDS011;5494;51.796;10.952;2023-09-12T13:01:35;4.67;;;4.27;;
10882;SDS011;5494;51.796;10.952;2023-09-12T13:04:07;5.03;;;3.87;;
10882;SDS011;5494;51.796;10.952;2023-09-12T13:06:36;5.33;;;3.63;;
10882;SDS011;5494;51.796;10.952;2023-09-12T13:09:05;3.07;;;2.87;;
10882;SDS011;5494;51.796;10.952;2023-09-12T13:11:35;3.23;;;2.93;;
10882;SDS011;5494;51.796;10.952;2023-09-12T13:14:04;4.07;;;3.07;;
10882;SDS011;5494;51.796;10.952;2023-09-12T13:16:36;4.63;;;3.17;;
10882;SDS011;5494;51.796;10.952;2023-09-12T13:19:07;3.77;;;3.07;;
10882;SDS011;5494;51.796;10.952;2023-09-12T13:21:38;2.90;;;2.60;;
10882;SDS011;5494;51.796;10.952;2023-09-12T13:24:07;3.47;;;2.47;;
10882;SDS011;5494;51.796;10.952;2023-09-12T13:26:36;2.80;;;2.60;;
10882;SDS011;5494;51.796;10.952;2023-09-12T13:29:04;2.67;;;2.40;;
10882;SDS011;5494;51.796;10.952;2023-09-12T13:31:32;3.73;;;2.10;;
10882;SDS011;5494;51.796;10.952;2023-09-12T13:34:00;5.47;;;2.83;;
10882;SDS011;5494;51.796;10.952;2023-09-12T13:36:30;2.70;;;2.50;;
10882;SDS011;5494;51.796;10.952;2023-09-12T13:38:59;4.43;;;2.90;;
10882;SDS011;5494;51.796;10.952;2023-09-12T13:41:27;3.33;;;3.03;;
10882;SDS011;5494;51.796;10.952;2023-09-12T13:43:56;3.93;;;2.70;;
10882;SDS011;5494;51.796;10.952;2023-09-12T13:46:24;5.43;;;2.67;;
10882;SDS011;5494;51.796;10.952;2023-09-12T13:48:52;4.93;;;2.83;;
10882;SDS011;5494;51.796;10.952;2023-09-12T13:51:21;6.27;;;2.33;;
10882;SDS011;5494;51.796;10.952;2023-09-12T13:53:51;3.50;;;2.73;;
10882;SDS011;5494;51.796;10.952;2023-09-12T13:56:19;2.73;;;2.10;;
10882;SDS011;5494;51.796;10.952;2023-09-12T13:58:47;4.30;;;2.33;;
10882;SDS011;5494;51.796;10.952;2023-09-12T14:01:16;3.93;;;2.87;;
10882;SDS011;5494;51.796;10.952;2023-09-12T14:04:03;2.60;;;2.40;;
10882;SDS011;5494;51.796;10.952;2023-09-12T14:06:33;2.77;;;2.57;;
10882;SDS011;5494;51.796;10.952;2023-09-12T14:09:04;3.50;;;2.30;;
10882;SDS011;5494;51.796;10.952;2023-09-12T14:11:34;3.93;;;2.50;;
10882;SDS011;5494;51.796;10.952;2023-09-12T14:14:03;3.10;;;2.80;;
10882;SDS011;5494;51.796;10.952;2023-09-12T14:16:42;2.93;;;2.63;;
10882;SDS011;5494;51.796;10.952;2023-09-12T14:19:13;3.77;;;2.10;;
10882;SDS011;5494;51.796;10.952;2023-09-12T14:21:42;5.37;;;2.50;;
10882;SDS011;5494;51.796;10.952;2023-09-12T14:24:14;2.17;;;1.90;;
10882;SDS011;5494;51.796;10.952;2023-09-12T14:26:46;3.00;;;2.00;;
10882;SDS011;5494;51.796;10.952;2023-09-12T14:29:17;3.97;;;2.40;;
10882;SDS011;5494;51.796;10.952;2023-09-12T14:31:46;2.33;;;2.07;;
10882;SDS011;5494;51.796;10.952;2023-09-12T14:34:22;25.37;;;3.67;;
10882;SDS011;5494;51.796;10.952;2023-09-12T14:36:50;4.23;;;2.20;;
10882;SDS011;5494;51.796;10.952;2023-09-12T14:39:20;3.23;;;1.97;;
10882;SDS011;5494;51.796;10.952;2023-09-12T14:41:48;2.93;;;2.13;;
10882;SDS011;5494;51.796;10.952;2023-09-12T14:44:18;2.30;;;1.80;;
10882;SDS011;5494;51.796;10.952;2023-09-12T14:46:46;1.97;;;1.80;;
10882;SDS011;5494;51.796;10.952;2023-09-12T14:49:15;3.70;;;1.67;;
10882;SDS011;5494;51.796;10.952;2023-09-12T14:51:43;3.47;;;1.80;;
10882;SDS011;5494;51.796;10.952;2023-09-12T14:54:12;2.93;;;1.60;;
10882;SDS011;5494;51.796;10.952;2023-09-12T14:56:41;1.70;;;1.60;;
10882;SDS011;5494;51.796;10.952;2023-09-12T14:59:09;2.60;;;1.70;;
10882;SDS011;5494;51.796;10.952;2023-09-12T15:01:39;1.53;;;1.43;;
10882;SDS011;5494;51.796;10.952;2023-09-12T15:04:07;3.10;;;1.70;;
10882;SDS011;5494;51.796;10.952;2023-09-12T15:06:37;4.33;;;1.90;;